This is the latest recevied weather packets stored in our database for station/object OM2RC-6. If no packets are shown the sender has not sent any weather packets the latest 10 day(s).
| Time | Temp. | Humidity | Pressure | Rain* | Wind** | Luminosity | Snow |
|---|---|---|---|---|---|---|---|
| 1777711791 | 20.56° C | 42% | 1026 hPa | - | - | - | - |
| 1777711488 | 21.11° C | 42% | 1026 hPa | - | - | - | - |
| 1777711187 | 20.56° C | 46% | 1026.1 hPa | - | - | - | - |
| 1777710886 | 20° C | 50% | 1026.2 hPa | - | - | - | - |
| 1777710284 | 22.22° C | 46% | 1026.2 hPa | - | - | - | - |
| 1777709678 | 21.67° C | 48% | 1026.3 hPa | - | - | - | - |
| 1777709354 | 22.78° C | 46% | 1026.4 hPa | - | - | - | - |
| 1777709048 | 19.44° C | 52% | 1026.6 hPa | - | - | - | - |
| 1777708724 | 21.11° C | 49% | 1026.5 hPa | - | - | - | - |
| 1777708418 | 18.89° C | 56% | 1026.7 hPa | - | - | - | - |
| 1777707798 | 18.89° C | 57% | 1026.6 hPa | - | - | - | - |
| 1777707495 | 18.33° C | 61% | 1026.7 hPa | - | - | - | - |
| 1777707169 | 18.89° C | 60% | 1026.7 hPa | - | - | - | - |
| 1777706245 | 18.33° C | 64% | 1026.6 hPa | - | - | - | - |
| 1777705943 | 16.11° C | 74% | 1026.7 hPa | - | - | - | - |
| 1777705642 | 16.67° C | 77% | 1026.6 hPa | - | - | - | - |
| 1777705342 | 17.22° C | 76% | 1026.6 hPa | - | - | - | - |
| 1777705041 | 16.11° C | 76% | 1026.7 hPa | - | - | - | - |
| 1777704740 | 16.67° C | 74% | 1026.7 hPa | - | - | - | - |
| 1777704439 | 15.56° C | 80% | 1026.7 hPa | - | - | - | - |
| 1777704138 | 15.56° C | 81% | 1026.7 hPa | - | - | - | - |
| 1777703837 | 13.89° C | 90% | 1026.6 hPa | - | - | - | - |
| 1777703536 | 13.89° C | 90% | 1026.8 hPa | - | - | - | - |
| 1777703233 | 14.44° C | 88% | 1026.7 hPa | - | - | - | - |
| 1777702933 | 14.44° C | 87% | 1026.7 hPa | - | - | - | - |
* Rain since midnight (hover to see other rain measurements)
** Current wind speed in m/s (hover to see current wind gust speed)